createdAt,value
2018-12-22T00:00:16.717Z,10.47
2018-12-22T00:02:47.664Z,9.50
2018-12-22T00:05:18.653Z,9.50
2018-12-22T00:07:50.639Z,10.17
2018-12-22T00:10:21.438Z,10.37
2018-12-22T00:12:52.206Z,12.57
2018-12-22T00:15:23.270Z,11.20
2018-12-22T00:17:54.176Z,9.67
2018-12-22T00:20:25.150Z,10.03
2018-12-22T00:22:56.266Z,10.10
2018-12-22T00:25:27.096Z,9.83
2018-12-22T00:27:57.674Z,8.20
2018-12-22T00:30:28.347Z,8.33
2018-12-22T00:32:59.303Z,8.37
2018-12-22T00:35:29.981Z,7.90
2018-12-22T00:38:00.937Z,8.13
2018-12-22T00:40:31.621Z,8.60
2018-12-22T00:43:02.412Z,8.07
2018-12-22T00:45:33.080Z,8.57
2018-12-22T00:48:03.938Z,7.43
2018-12-22T00:50:34.971Z,7.97
2018-12-22T00:53:05.627Z,8.80
2018-12-22T00:55:36.350Z,7.63
2018-12-22T00:58:07.207Z,8.23
2018-12-22T01:00:38.152Z,8.73
2018-12-22T01:03:09.158Z,8.43
2018-12-22T01:05:39.916Z,8.20
2018-12-22T01:08:10.763Z,8.60
2018-12-22T01:10:41.660Z,8.63
2018-12-22T01:13:12.465Z,8.83
2018-12-22T01:15:43.344Z,8.57
2018-12-22T01:18:14.066Z,8.70
2018-12-22T01:20:45.031Z,9.07
2018-12-22T01:23:15.935Z,8.77
2018-12-22T01:25:46.826Z,9.43
2018-12-22T01:28:17.695Z,9.30
2018-12-22T01:30:48.359Z,9.83
2018-12-22T01:33:19.285Z,9.40
2018-12-22T01:35:50.001Z,10.93
2018-12-22T01:38:21.056Z,12.00
2018-12-22T01:40:51.994Z,11.40
2018-12-22T01:43:22.837Z,11.30
2018-12-22T01:45:53.736Z,11.63
2018-12-22T01:48:24.424Z,11.20
2018-12-22T01:50:55.459Z,10.33
2018-12-22T01:53:26.208Z,10.67
2018-12-22T01:55:57.048Z,11.37
2018-12-22T01:58:27.890Z,11.37
2018-12-22T02:00:58.710Z,11.97
2018-12-22T02:03:29.707Z,11.43
2018-12-22T02:06:00.456Z,11.67
2018-12-22T02:08:31.178Z,11.90
2018-12-22T02:11:02.131Z,13.67
2018-12-22T02:13:32.915Z,16.83
2018-12-22T02:16:03.599Z,14.07
2018-12-22T02:18:34.391Z,12.23
2018-12-22T02:21:05.076Z,12.57
2018-12-22T02:23:36.045Z,19.20
2018-12-22T02:26:06.822Z,13.60
2018-12-22T02:28:38.904Z,13.30
2018-12-22T02:31:09.580Z,13.37
2018-12-22T02:33:40.518Z,12.53
2018-12-22T02:36:11.250Z,12.33
2018-12-22T02:38:42.504Z,11.87
2018-12-22T02:41:13.349Z,12.60
2018-12-22T02:43:44.132Z,12.83
2018-12-22T02:46:14.730Z,12.07
2018-12-22T02:48:45.443Z,12.53
2018-12-22T02:51:16.188Z,12.10
2018-12-22T02:53:47.114Z,11.90
2018-12-22T02:56:17.959Z,12.10
2018-12-22T02:58:48.862Z,12.17
2018-12-22T03:01:20.479Z,11.37
2018-12-22T03:03:51.465Z,11.57
2018-12-22T03:06:22.416Z,11.60
2018-12-22T03:08:53.312Z,11.83
2018-12-22T03:11:24.275Z,12.57
2018-12-22T03:13:54.856Z,12.60
2018-12-22T03:16:25.712Z,12.53
2018-12-22T03:18:56.621Z,12.30
2018-12-22T03:21:27.436Z,13.77
2018-12-22T03:23:58.228Z,17.50
2018-12-22T03:26:29.015Z,15.47
2018-12-22T03:28:59.973Z,22.47
2018-12-22T03:31:30.569Z,15.67
2018-12-22T03:34:01.318Z,14.63
2018-12-22T03:36:32.059Z,15.97
2018-12-22T03:39:03.117Z,15.77
2018-12-22T03:41:34.043Z,15.30
2018-12-22T03:44:05.014Z,14.30
2018-12-22T03:46:35.929Z,16.30
2018-12-22T03:49:06.814Z,16.60
2018-12-22T03:51:37.770Z,16.20
2018-12-22T03:54:08.652Z,15.37
2018-12-22T03:56:39.438Z,14.70
2018-12-22T03:59:10.230Z,15.17
2018-12-22T04:01:40.847Z,14.43
2018-12-22T04:04:11.680Z,14.83
2018-12-22T04:06:42.501Z,15.03
2018-12-22T04:09:13.423Z,16.70
2018-12-22T04:11:44.096Z,15.87
2018-12-22T04:14:14.842Z,14.83
2018-12-22T04:16:45.619Z,14.87
2018-12-22T04:19:16.563Z,15.10
2018-12-22T04:21:47.621Z,15.30
2018-12-22T04:24:18.441Z,14.07
2018-12-22T04:26:49.187Z,14.47
2018-12-22T04:29:19.908Z,14.20
2018-12-22T04:31:50.861Z,14.97
2018-12-22T04:34:21.721Z,14.00
2018-12-22T04:36:52.531Z,14.17
2018-12-22T04:39:23.663Z,14.17
2018-12-22T04:41:54.445Z,13.03
2018-12-22T04:44:26.134Z,13.20
2018-12-22T04:46:56.957Z,13.83
2018-12-22T04:49:29.319Z,13.67
2018-12-22T04:52:00.012Z,13.20
2018-12-22T04:54:30.945Z,12.80
2018-12-22T04:57:01.699Z,11.70
2018-12-22T04:59:32.406Z,13.50
2018-12-22T05:02:04.094Z,11.57
2018-12-22T05:04:34.906Z,10.87
2018-12-22T05:07:06.430Z,11.00
2018-12-22T05:09:37.314Z,11.13
2018-12-22T05:12:08.303Z,8.83
2018-12-22T05:14:38.863Z,9.63
2018-12-22T05:17:09.507Z,9.83
2018-12-22T05:19:40.260Z,9.67
2018-12-22T05:22:11.033Z,9.33
2018-12-22T05:24:41.988Z,11.33
2018-12-22T05:27:13.200Z,10.40
2018-12-22T05:29:51.734Z,15.03
2018-12-22T05:32:17.594Z,13.63
2018-12-22T05:34:48.489Z,16.37
2018-12-22T05:37:19.556Z,10.87
2018-12-22T05:39:50.368Z,10.20
2018-12-22T05:42:20.982Z,11.40
2018-12-22T05:44:52.025Z,12.57
2018-12-22T05:47:22.946Z,11.50
2018-12-22T05:49:53.932Z,10.43
2018-12-22T05:52:24.584Z,10.73
2018-12-22T05:54:55.550Z,8.67
2018-12-22T05:57:26.553Z,10.43
2018-12-22T06:00:00.833Z,9.43
2018-12-22T06:02:30.546Z,9.53
2018-12-22T06:05:02.693Z,10.00
2018-12-22T06:07:33.372Z,9.97
2018-12-22T06:10:04.115Z,9.47
2018-12-22T06:12:34.974Z,9.83
2018-12-22T06:15:06.373Z,10.33
2018-12-22T06:17:37.305Z,10.10
2018-12-22T06:20:10.962Z,9.33
2018-12-22T06:22:41.723Z,9.67
2018-12-22T06:25:12.443Z,8.43
2018-12-22T06:27:43.275Z,10.13
2018-12-22T06:30:14.457Z,10.10
2018-12-22T06:32:45.370Z,7.73
2018-12-22T06:35:16.202Z,8.10
2018-12-22T06:37:46.969Z,8.27
2018-12-22T06:40:17.833Z,8.70
2018-12-22T06:42:48.784Z,8.33
2018-12-22T06:45:19.645Z,8.00
2018-12-22T06:47:50.592Z,8.13
2018-12-22T06:50:21.526Z,10.70
2018-12-22T06:52:52.389Z,13.43
2018-12-22T06:55:23.100Z,8.93
2018-12-22T06:57:53.996Z,9.93
2018-12-22T07:00:24.856Z,8.27
2018-12-22T07:02:55.666Z,9.77
2018-12-22T07:05:26.544Z,9.50
2018-12-22T07:07:57.401Z,10.00
2018-12-22T07:10:28.398Z,9.60
2018-12-22T07:12:59.532Z,10.13
2018-12-22T07:15:30.364Z,8.63
2018-12-22T07:18:01.146Z,10.53
2018-12-22T07:20:31.886Z,10.00
2018-12-22T07:23:03.021Z,8.70
2018-12-22T07:25:33.871Z,8.50
2018-12-22T07:28:04.921Z,8.40
2018-12-22T07:30:35.864Z,12.83
2018-12-22T07:33:07.460Z,7.77
2018-12-22T07:35:38.498Z,8.33
2018-12-22T07:38:09.831Z,7.57
2018-12-22T07:40:41.046Z,7.63
2018-12-22T07:43:12.889Z,7.63
2018-12-22T07:45:44.555Z,7.30
2018-12-22T07:48:15.353Z,8.23
2018-12-22T07:50:47.268Z,6.13
2018-12-22T07:53:18.255Z,7.57
2018-12-22T07:55:49.055Z,7.33
2018-12-22T07:58:20.351Z,6.70
2018-12-22T08:00:51.253Z,6.23
2018-12-22T08:03:22.342Z,6.93
2018-12-22T08:05:54.035Z,5.23
2018-12-22T08:08:25.681Z,7.00
2018-12-22T08:10:56.768Z,6.10
2018-12-22T08:13:28.139Z,6.80
2018-12-22T08:15:59.185Z,6.30
2018-12-22T08:18:30.108Z,7.80
2018-12-22T08:21:00.849Z,5.57
2018-12-22T08:23:31.836Z,5.80
2018-12-22T08:26:03.479Z,5.33
2018-12-22T08:28:34.438Z,5.07
2018-12-22T08:31:05.942Z,5.80
2018-12-22T08:33:37.351Z,9.90
2018-12-22T08:36:08.224Z,11.87
2018-12-22T08:38:39.306Z,20.53
2018-12-22T08:41:10.376Z,17.03
2018-12-22T08:43:41.267Z,15.20
2018-12-22T08:46:12.180Z,22.00
2018-12-22T08:48:43.562Z,12.87
2018-12-22T08:51:15.725Z,6.03
2018-12-22T08:53:46.677Z,5.60
2018-12-22T08:56:20.194Z,5.53
2018-12-22T08:58:51.306Z,4.97
2018-12-22T09:01:22.262Z,5.77
2018-12-22T09:03:53.371Z,7.10
2018-12-22T09:06:24.614Z,9.03
2018-12-22T09:08:55.367Z,4.50
2018-12-22T09:11:26.724Z,5.10
2018-12-22T09:13:58.117Z,25.20
2018-12-22T09:16:29.109Z,11.00
2018-12-22T09:19:00.247Z,7.03
2018-12-22T09:21:31.795Z,4.80
2018-12-22T09:24:02.599Z,5.87
2018-12-22T09:26:33.591Z,4.43
2018-12-22T09:29:04.841Z,4.30
2018-12-22T09:31:35.816Z,5.60
2018-12-22T09:34:13.318Z,6.77
2018-12-22T09:36:39.464Z,6.83
2018-12-22T09:39:11.300Z,4.83
2018-12-22T09:41:42.938Z,5.43
2018-12-22T09:44:14.153Z,4.00
2018-12-22T09:46:45.134Z,4.17
2018-12-22T09:49:16.003Z,4.50
2018-12-22T09:51:46.698Z,5.53
2018-12-22T09:54:18.382Z,5.17
2018-12-22T09:56:49.330Z,5.17
2018-12-22T09:59:20.387Z,4.63
2018-12-22T10:01:51.696Z,6.27
2018-12-22T10:04:22.948Z,5.30
2018-12-22T10:06:55.127Z,5.70
2018-12-22T10:09:26.196Z,6.30
2018-12-22T10:11:57.400Z,5.17
2018-12-22T10:14:28.394Z,5.33
2018-12-22T10:16:59.930Z,5.77
2018-12-22T10:19:30.709Z,9.63
2018-12-22T10:22:01.815Z,4.20
2018-12-22T10:24:32.877Z,8.50
2018-12-22T10:27:03.906Z,5.30
2018-12-22T10:29:35.152Z,6.13
2018-12-22T10:32:06.712Z,5.20
2018-12-22T10:34:38.244Z,4.40
2018-12-22T10:37:09.062Z,12.43
2018-12-22T10:39:40.321Z,8.27
2018-12-22T10:42:11.233Z,6.70
2018-12-22T10:44:42.310Z,7.10
2018-12-22T10:47:13.645Z,4.20
2018-12-22T10:49:45.606Z,5.07
2018-12-22T10:52:17.261Z,6.40
2018-12-22T10:54:48.993Z,5.97
2018-12-22T10:57:19.917Z,6.63
2018-12-22T10:59:51.448Z,6.93
2018-12-22T11:02:23.784Z,6.13
2018-12-22T11:04:54.844Z,6.60
2018-12-22T11:07:25.519Z,5.53
2018-12-22T11:09:56.858Z,5.90
2018-12-22T11:12:27.900Z,7.73
2018-12-22T11:14:59.598Z,8.17
2018-12-22T11:17:30.732Z,8.53
2018-12-22T11:20:02.263Z,6.93
2018-12-22T11:22:34.144Z,6.20
2018-12-22T11:25:10.987Z,5.67
2018-12-22T11:27:42.665Z,8.10
2018-12-22T11:30:18.942Z,6.43
2018-12-22T11:32:50.480Z,5.40
2018-12-22T11:35:21.597Z,5.80
2018-12-22T11:37:53.809Z,5.83
2018-12-22T11:40:25.302Z,6.67
2018-12-22T11:42:57.386Z,6.00
2018-12-22T11:45:28.531Z,5.57
2018-12-22T11:49:23.503Z,6.47
2018-12-22T11:51:55.463Z,5.93
2018-12-22T11:54:26.697Z,5.20
2018-12-22T11:56:57.934Z,5.20
2018-12-22T11:59:30.906Z,5.63
2018-12-22T12:02:09.469Z,6.10
2018-12-22T12:04:36.715Z,5.97
2018-12-22T12:07:07.866Z,6.27
2018-12-22T12:09:39.149Z,6.50
2018-12-22T12:12:11.399Z,7.07
2018-12-22T12:14:42.954Z,9.30
2018-12-22T12:17:34.428Z,6.00
2018-12-22T12:20:05.728Z,6.33
2018-12-22T12:22:36.990Z,5.83
2018-12-22T12:25:10.162Z,6.00
2018-12-22T12:27:41.169Z,7.30
2018-12-22T12:30:15.039Z,6.27
2018-12-22T12:32:45.788Z,9.50
2018-12-22T12:35:17.012Z,5.37
2018-12-22T12:37:47.887Z,6.37
2018-12-22T12:40:18.994Z,5.23
2018-12-22T12:42:50.293Z,5.30
2018-12-22T12:45:21.360Z,6.23
2018-12-22T12:47:52.483Z,6.07
2018-12-22T12:50:25.177Z,5.40
2018-12-22T12:52:56.413Z,5.23
2018-12-22T12:55:27.454Z,5.57
2018-12-22T12:57:58.447Z,6.80
2018-12-22T13:00:29.804Z,6.67
2018-12-22T13:03:01.795Z,6.13
2018-12-22T13:05:32.844Z,7.33
2018-12-22T13:08:03.884Z,5.73
2018-12-22T13:10:34.886Z,7.50
2018-12-22T13:13:21.004Z,6.57
2018-12-22T13:15:52.286Z,6.10
2018-12-22T13:18:23.657Z,6.60
2018-12-22T13:20:54.815Z,5.43
2018-12-22T13:23:25.740Z,6.97
2018-12-22T13:25:56.305Z,7.50
2018-12-22T13:28:27.407Z,7.80
2018-12-22T13:30:58.266Z,11.47
2018-12-22T13:33:29.768Z,6.90
2018-12-22T13:36:01.536Z,6.67
2018-12-22T13:38:35.915Z,5.53
2018-12-22T13:41:07.328Z,7.60
2018-12-22T13:43:38.366Z,5.97
2018-12-22T13:46:12.105Z,8.67
2018-12-22T13:48:43.377Z,6.63
2018-12-22T13:51:14.891Z,7.13
2018-12-22T13:53:46.261Z,7.73
2018-12-22T13:56:17.255Z,7.60
2018-12-22T13:58:48.846Z,9.70
2018-12-22T14:01:23.345Z,10.07
2018-12-22T14:03:58.529Z,6.47
2018-12-22T14:06:36.021Z,7.70
2018-12-22T14:09:09.228Z,10.40
2018-12-22T14:11:40.754Z,11.00
2018-12-22T14:14:18.234Z,15.90
2018-12-22T14:16:59.095Z,7.93
2018-12-22T14:19:30.689Z,7.67
2018-12-22T14:22:01.901Z,9.00
2018-12-22T14:24:43.100Z,8.30
2018-12-22T14:27:14.166Z,7.90
2018-12-22T14:29:45.146Z,8.97
2018-12-22T14:32:16.576Z,10.03
2018-12-22T14:35:31.204Z,10.30
2018-12-22T14:38:02.394Z,9.50
2018-12-22T14:40:33.451Z,8.60
2018-12-22T14:43:04.810Z,8.77
2018-12-22T14:45:35.991Z,10.00
2018-12-22T14:48:07.732Z,9.40
2018-12-22T14:50:38.673Z,10.97
2018-12-22T14:53:10.560Z,10.20
2018-12-22T14:55:41.666Z,11.33
2018-12-22T14:58:18.839Z,11.60
2018-12-22T15:00:50.093Z,10.23
2018-12-22T15:03:21.311Z,9.90
2018-12-22T15:05:54.163Z,10.70
2018-12-22T15:08:25.614Z,11.70
2018-12-22T15:10:57.211Z,10.83
2018-12-22T15:13:28.358Z,11.87
2018-12-22T15:16:03.221Z,14.23
2018-12-22T15:18:34.506Z,14.10
2018-12-22T15:21:06.134Z,12.83
2018-12-22T15:23:38.000Z,14.43
2018-12-22T15:26:10.166Z,14.90
2018-12-22T15:28:47.170Z,14.90
2018-12-22T15:31:15.280Z,15.93
2018-12-22T15:33:47.298Z,15.87
2018-12-22T15:36:18.909Z,19.07
2018-12-22T15:38:52.503Z,30.40
2018-12-22T15:41:23.989Z,17.70
2018-12-22T15:43:55.682Z,14.67
2018-12-22T15:46:26.767Z,18.37
2018-12-22T15:48:59.033Z,18.07
2018-12-22T15:51:30.305Z,18.50
2018-12-22T15:54:01.903Z,17.77
2018-12-22T15:56:34.291Z,19.00
2018-12-22T15:59:05.478Z,19.07
2018-12-22T16:01:36.956Z,17.87
2018-12-22T16:04:08.468Z,18.97
2018-12-22T16:06:39.574Z,23.80
2018-12-22T16:09:10.900Z,18.40
2018-12-22T16:11:41.944Z,19.30
2018-12-22T16:14:12.920Z,23.40
2018-12-22T16:16:44.412Z,21.00
2018-12-22T16:19:16.474Z,23.13
2018-12-22T16:21:47.522Z,24.50
2018-12-22T16:24:19.355Z,20.53
2018-12-22T16:26:50.256Z,27.80
2018-12-22T16:29:32.604Z,30.73
2018-12-22T16:32:04.085Z,21.13
2018-12-22T16:34:35.636Z,26.27
2018-12-22T16:37:06.573Z,36.40
2018-12-22T16:39:39.793Z,22.90
2018-12-22T16:42:10.673Z,24.07
2018-12-22T16:44:42.982Z,19.10
2018-12-22T16:47:13.777Z,21.83
2018-12-22T16:49:45.518Z,21.93
2018-12-22T16:52:16.720Z,20.83
2018-12-22T16:54:49.023Z,20.30
2018-12-22T16:57:20.185Z,24.33
2018-12-22T16:59:51.391Z,23.47
2018-12-22T17:02:34.891Z,22.27
2018-12-22T17:05:09.700Z,25.83
2018-12-22T17:07:41.782Z,27.60
2018-12-22T17:10:12.959Z,24.90
2018-12-22T17:12:44.223Z,24.60
2018-12-22T17:15:21.887Z,24.50
2018-12-22T17:17:48.401Z,27.83
2018-12-22T17:20:19.914Z,27.07
2018-12-22T17:23:20.985Z,23.83
2018-12-22T17:25:58.750Z,25.23
2018-12-22T17:28:30.143Z,23.30
2018-12-22T17:31:01.121Z,26.20
2018-12-22T17:33:32.158Z,21.27
2018-12-22T17:36:02.981Z,23.13
2018-12-22T17:38:33.805Z,25.77
2018-12-22T17:41:05.164Z,21.43
2018-12-22T17:43:38.247Z,20.07
2018-12-22T17:46:09.786Z,22.13
2018-12-22T17:48:41.392Z,23.57
2018-12-22T17:51:14.640Z,19.77
2018-12-22T17:53:46.148Z,20.53
2018-12-22T17:56:19.566Z,21.53
2018-12-22T17:58:51.069Z,23.70
2018-12-22T18:01:22.512Z,20.50
2018-12-22T18:03:53.709Z,22.70
2018-12-22T18:06:24.414Z,22.00
2018-12-22T18:08:55.510Z,23.33
2018-12-22T18:11:26.623Z,24.40
2018-12-22T18:13:58.048Z,26.17
2018-12-22T18:16:29.753Z,20.80
2018-12-22T18:19:01.314Z,23.33
2018-12-22T18:21:33.419Z,24.43
2018-12-22T18:24:04.340Z,26.77
2018-12-22T18:26:35.437Z,26.87
2018-12-22T18:29:07.464Z,21.93
2018-12-22T18:31:39.341Z,28.67
2018-12-22T18:34:10.340Z,31.33
2018-12-22T18:36:41.701Z,30.73
2018-12-22T18:39:12.854Z,34.30
2018-12-22T18:41:46.087Z,38.43
2018-12-22T18:44:17.335Z,29.00
2018-12-22T18:46:49.030Z,38.33
2018-12-22T18:49:20.155Z,34.23
2018-12-22T18:51:51.050Z,31.70
2018-12-22T18:54:21.823Z,30.73
2018-12-22T18:56:53.239Z,23.67
2018-12-22T18:59:25.312Z,25.77
2018-12-22T19:01:57.356Z,27.07
2018-12-22T19:04:29.249Z,25.53
2018-12-22T19:07:00.599Z,27.00
2018-12-22T19:09:34.779Z,28.67
2018-12-22T19:12:14.650Z,28.40
2018-12-22T19:14:54.488Z,26.03
2018-12-22T19:17:26.677Z,23.40
2018-12-22T19:20:02.860Z,22.57
2018-12-22T19:22:34.091Z,27.30
2018-12-22T19:25:05.492Z,29.73
2018-12-22T19:27:37.067Z,28.33
2018-12-22T19:30:09.447Z,28.40
2018-12-22T19:32:41.336Z,34.33
2018-12-22T19:35:12.926Z,37.10
2018-12-22T19:37:46.256Z,31.10
2018-12-22T19:40:20.503Z,21.97
2018-12-22T19:42:53.666Z,26.47
2018-12-22T19:45:25.384Z,21.07
2018-12-22T19:47:57.986Z,22.57
2018-12-22T19:50:29.955Z,22.33
2018-12-22T19:53:01.977Z,22.30
2018-12-22T19:55:33.705Z,22.17
2018-12-22T19:58:05.885Z,22.13
2018-12-22T20:00:38.552Z,20.67
2018-12-22T20:03:11.081Z,22.50
2018-12-22T20:05:43.705Z,18.17
2018-12-22T20:08:16.861Z,19.07
2018-12-22T20:10:49.530Z,23.53
2018-12-22T20:13:22.903Z,22.80
2018-12-22T20:15:56.030Z,20.07
2018-12-22T20:18:29.023Z,23.97
2018-12-22T20:21:01.641Z,18.37
2018-12-22T20:23:35.118Z,14.17
2018-12-22T20:26:07.867Z,17.97
2018-12-22T20:28:42.871Z,14.57
2018-12-22T20:31:16.072Z,17.03
2018-12-22T20:33:48.451Z,16.10
2018-12-22T20:36:21.662Z,16.60
2018-12-22T20:38:57.299Z,15.30
2018-12-22T20:41:30.869Z,17.60
2018-12-22T20:44:03.879Z,19.83
2018-12-22T20:46:37.151Z,20.27
2018-12-22T20:49:10.239Z,20.23
2018-12-22T20:51:43.583Z,19.57
2018-12-22T20:54:16.543Z,20.83
2018-12-22T20:56:49.694Z,21.17
2018-12-22T20:59:21.778Z,21.27
2018-12-22T21:01:54.722Z,22.07
2018-12-22T21:04:26.978Z,19.73
2018-12-22T21:06:58.814Z,24.60
2018-12-22T21:09:31.957Z,22.53
2018-12-22T21:12:05.184Z,24.03
2018-12-22T21:14:37.444Z,24.77
2018-12-22T21:17:10.305Z,24.70
2018-12-22T21:19:43.336Z,29.00
2018-12-22T21:22:17.074Z,29.53
2018-12-22T21:24:49.583Z,27.00
2018-12-22T21:27:21.332Z,28.70
2018-12-22T21:29:52.599Z,30.63
2018-12-22T21:32:25.093Z,30.53
2018-12-22T21:34:55.947Z,29.37
2018-12-22T21:37:27.199Z,31.63
2018-12-22T21:39:59.194Z,30.37
2018-12-22T21:42:31.712Z,34.03
2018-12-22T21:45:03.895Z,41.23
2018-12-22T21:47:35.236Z,33.73
2018-12-22T21:50:09.098Z,34.70
2018-12-22T21:52:40.361Z,31.73
2018-12-22T21:55:13.940Z,30.47
2018-12-22T21:57:45.491Z,32.67
2018-12-22T22:00:17.176Z,30.53
2018-12-22T22:02:48.865Z,31.23
2018-12-22T22:05:21.148Z,30.60
2018-12-22T22:07:52.906Z,32.03
2018-12-22T22:10:25.402Z,34.87
2018-12-22T22:12:56.712Z,34.53
2018-12-22T22:15:29.027Z,37.30
2018-12-22T22:18:01.736Z,37.60
2018-12-22T22:20:33.900Z,34.27
2018-12-22T22:23:06.900Z,38.10
2018-12-22T22:25:38.498Z,34.90
2018-12-22T22:28:09.581Z,35.23
2018-12-22T22:30:40.626Z,33.00
2018-12-22T22:33:11.957Z,32.23
2018-12-22T22:35:43.803Z,33.20
2018-12-22T22:38:14.795Z,33.47
2018-12-22T22:40:45.936Z,30.67
2018-12-22T22:43:17.059Z,31.93
2018-12-22T22:45:48.904Z,32.90
2018-12-22T22:48:20.170Z,30.33
2018-12-22T22:50:53.011Z,30.27
2018-12-22T22:53:24.416Z,53.73
2018-12-22T22:55:57.229Z,38.70
2018-12-22T22:58:29.914Z,29.00
2018-12-22T23:01:02.143Z,30.60
2018-12-22T23:03:33.666Z,27.80
2018-12-22T23:06:06.428Z,29.53
2018-12-22T23:08:37.848Z,31.30
2018-12-22T23:11:10.830Z,32.50
2018-12-22T23:13:42.630Z,30.93
2018-12-22T23:16:14.216Z,30.97
2018-12-22T23:18:45.569Z,33.17
2018-12-22T23:21:17.541Z,31.83
2018-12-22T23:23:49.183Z,33.77
2018-12-22T23:26:20.811Z,33.07
2018-12-22T23:28:52.095Z,30.63
2018-12-22T23:31:25.106Z,26.60
2018-12-22T23:33:56.870Z,29.53
2018-12-22T23:36:28.360Z,31.30
2018-12-22T23:39:00.327Z,30.60
2018-12-22T23:41:31.858Z,26.70
2018-12-22T23:44:03.333Z,17.17
2018-12-22T23:46:35.845Z,15.63
2018-12-22T23:49:07.587Z,15.03
2018-12-22T23:51:39.633Z,17.37
2018-12-22T23:54:10.819Z,16.80
2018-12-22T23:56:42.223Z,17.57
2018-12-22T23:59:13.579Z,19.87
